Time;durP1;ratioP1;P1;durP2;ratioP2;P2;SDS_P1;SDS_P2;PMS_P1;PMS_P2;Temp;Humidity;BMP_temperature;BMP_pressure;BME280_temperature;BME280_humidity;BME280_pressure;Samples;Min_cycle;Max_cycle;Signal;HPM_P1;HPM_P2
2022/07/15 00:00:08;;;;;;;4.55;1.98;;;9.70;99.90;;;;;;5002737;28;20459;-69
2022/07/15 00:02:36;;;;;;;6.60;2.33;;;9.80;99.90;;;;;;5002028;28;20033;-69
2022/07/15 00:05:05;;;;;;;5.53;3.05;;;9.90;99.90;;;;;;5003198;28;20033;-70
2022/07/15 00:07:33;;;;;;;3.65;2.13;;;10.00;99.90;;;;;;5001608;28;20022;-68
2022/07/15 00:10:18;;;;;;;3.35;2.00;;;10.10;99.90;;;;;;5001119;28;20022;-69
2022/07/15 00:13:05;;;;;;;3.22;2.17;;;10.30;99.90;;;;;;4998895;28;20026;-68
2022/07/15 00:15:33;;;;;;;3.55;2.10;;;10.30;99.90;;;;;;5000396;28;20188;-70
2022/07/15 00:18:03;;;;;;;6.75;2.55;;;10.40;99.90;;;;;;5001780;28;20033;-68
2022/07/15 00:20:34;;;;;;;3.47;2.10;;;10.40;99.90;;;;;;5002818;28;20112;-68
2022/07/15 00:23:07;;;;;;;7.85;2.42;;;10.40;99.90;;;;;;5002307;28;20482;-66
2022/07/15 00:25:34;;;;;;;3.97;1.85;;;10.60;99.90;;;;;;5002337;28;20038;-68
2022/07/15 00:28:06;;;;;;;5.32;2.45;;;10.60;99.90;;;;;;4998991;28;20483;-68
2022/07/15 00:30:37;;;;;;;5.13;2.22;;;10.80;99.90;;;;;;5002040;28;20022;-69
2022/07/15 00:33:05;;;;;;;5.25;2.30;;;10.80;99.90;;;;;;5001064;28;20041;-69
2022/07/15 00:35:34;;;;;;;6.25;2.92;;;10.90;99.90;;;;;;5006668;28;20045;-70
2022/07/15 00:38:03;;;;;;;4.50;2.00;;;10.90;99.90;;;;;;5037787;28;20025;-69
2022/07/15 00:40:30;;;;;;;3.30;1.65;;;11.10;99.90;;;;;;5004144;28;20026;-71
2022/07/15 00:42:58;;;;;;;3.80;2.15;;;11.10;99.90;;;;;;5004234;28;20104;-69
2022/07/15 00:45:26;;;;;;;6.03;2.83;;;11.20;99.90;;;;;;5002908;28;20537;-70
2022/07/15 00:47:57;;;;;;;2.25;1.50;;;11.30;99.90;;;;;;5002965;28;20033;-69
2022/07/15 00:50:29;;;;;;;4.43;1.83;;;11.40;99.90;;;;;;5004058;28;20025;-72
2022/07/15 00:53:10;;;;;;;4.30;2.35;;;11.50;99.90;;;;;;5002746;28;20022;-69
2022/07/15 00:55:42;;;;;;;2.70;1.60;;;11.50;99.90;;;;;;5020387;28;20041;-68
2022/07/15 00:58:15;;;;;;;3.07;1.93;;;11.60;99.90;;;;;;4983570;28;20729;-69
2022/07/15 01:00:42;;;;;;;;;;;11.70;99.90;;;;;;4991505;28;20592;-69
2022/07/15 01:03:10;;;;;;;6.53;3.72;;;11.80;99.90;;;;;;5003910;28;19964;-69
2022/07/15 01:05:39;;;;;;;3.13;2.28;;;11.90;99.90;;;;;;5003733;28;20386;-67
2022/07/15 01:08:06;;;;;;;7.15;2.03;;;12.00;99.90;;;;;;5004590;28;20018;-67
2022/07/15 01:10:36;;;;;;;3.25;1.15;;;12.10;99.90;;;;;;5004475;28;20708;-69
2022/07/15 01:13:04;;;;;;;2.55;1.40;;;12.20;99.90;;;;;;5004373;28;20032;-65
2022/07/15 01:15:32;;;;;;;4.40;1.67;;;12.40;99.90;;;;;;5004841;28;20029;-69
2022/07/15 01:18:01;;;;;;;3.92;1.70;;;12.50;99.90;;;;;;5004949;28;20049;-69
2022/07/15 01:20:29;;;;;;;4.68;1.90;;;12.60;99.90;;;;;;5004772;28;20108;-68
2022/07/15 01:22:59;;;;;;;3.67;1.98;;;12.60;99.90;;;;;;5004668;28;20026;-68
2022/07/15 01:25:27;;;;;;;2.65;1.42;;;12.70;99.90;;;;;;5004625;28;20045;-68
2022/07/15 01:27:54;;;;;;;4.18;1.60;;;12.80;99.90;;;;;;5004823;28;20014;-68
2022/07/15 01:30:22;;;;;;;2.88;1.52;;;12.80;99.90;;;;;;5004722;28;20018;-68
2022/07/15 01:32:50;;;;;;;3.72;1.42;;;13.00;99.90;;;;;;5004376;28;20029;-69
2022/07/15 01:35:18;;;;;;;3.15;1.30;;;13.00;99.90;;;;;;5004853;28;20021;-71
2022/07/15 01:37:46;;;;;;;2.45;1.50;;;13.20;99.90;;;;;;5005317;28;20038;-68
2022/07/15 01:40:13;;;;;;;3.88;1.50;;;13.40;99.60;;;;;;5004313;28;20025;-70
2022/07/15 01:42:41;;;;;;;4.43;1.55;;;13.50;99.30;;;;;;5004627;28;20025;-69
2022/07/15 01:45:09;;;;;;;2.17;1.35;;;13.60;99.20;;;;;;5002610;28;20088;-69
2022/07/15 01:47:49;;;;;;;1.92;1.20;;;13.80;99.20;;;;;;5004646;28;20475;-69
2022/07/15 01:50:17;;;;;;;2.20;1.45;;;13.90;98.80;;;;;;5004490;28;20383;-70
2022/07/15 01:52:44;;;;;;;3.03;1.70;;;14.10;98.10;;;;;;5004568;28;20109;-68
2022/07/15 01:55:12;;;;;;;3.05;1.40;;;14.20;97.90;;;;;;5003827;28;20026;-68
2022/07/15 01:57:39;;;;;;;2.90;1.13;;;14.30;96.90;;;;;;5004066;28;20506;-68
2022/07/15 02:00:09;;;;;;;2.80;1.10;;;14.40;97.00;;;;;;5003607;28;20034;-69
2022/07/15 02:02:37;;;;;;;4.63;1.65;;;14.60;96.30;;;;;;5003987;28;20582;-68
2022/07/15 02:05:04;;;;;;;4.45;1.95;;;14.70;96.00;;;;;;5003230;28;20033;-68
2022/07/15 02:07:32;;;;;;;2.75;1.23;;;14.90;96.80;;;;;;5004775;28;20030;-69
2022/07/15 02:10:02;;;;;;;4.32;1.40;;;15.00;96.80;;;;;;5003204;28;20045;-69
2022/07/15 02:12:29;;;;;;;3.15;1.17;;;15.20;96.50;;;;;;5004126;28;20493;-69
2022/07/15 02:14:56;;;;;;;2.72;1.10;;;15.40;97.10;;;;;;5003380;28;20080;-68
2022/07/15 02:17:24;;;;;;;3.35;1.15;;;15.50;96.10;;;;;;5004112;28;20496;-69
2022/07/15 02:19:51;;;;;;;6.18;1.38;;;15.70;95.30;;;;;;5004220;28;20057;-68
2022/07/15 02:22:18;;;;;;;2.53;1.27;;;15.60;94.80;;;;;;5003415;28;20029;-69
2022/07/15 02:24:46;;;;;;;1.90;1.20;;;15.70;95.10;;;;;;5003666;28;20026;-71
2022/07/15 02:27:13;;;;;;;3.08;1.67;;;15.80;95.10;;;;;;5003360;28;20036;-67
2022/07/15 02:29:40;;;;;;;3.50;1.20;;;15.80;95.00;;;;;;5003628;28;20018;-69
2022/07/15 02:32:07;;;;;;;2.63;1.42;;;15.90;94.90;;;;;;5003303;28;20022;-69
2022/07/15 02:34:35;;;;;;;1.30;0.95;;;16.00;94.40;;;;;;5003849;28;20029;-68
2022/07/15 02:37:02;;;;;;;5.05;1.40;;;16.10;94.10;;;;;;5003252;28;20018;-69
2022/07/15 02:39:30;;;;;;;2.75;1.02;;;16.20;93.30;;;;;;5003584;28;20169;-69
2022/07/15 02:41:58;;;;;;;1.58;0.80;;;16.30;93.70;;;;;;5003068;28;20053;-68
2022/07/15 02:44:25;;;;;;;2.30;0.77;;;16.50;93.80;;;;;;5001499;28;20506;-68
2022/07/15 02:46:52;;;;;;;2.58;0.85;;;16.80;93.10;;;;;;5004149;28;20026;-68
2022/07/15 02:49:20;;;;;;;2.83;1.20;;;17.10;92.50;;;;;;5003257;28;20049;-68
2022/07/15 02:51:47;;;;;;;3.17;1.00;;;17.20;91.90;;;;;;5000171;28;20018;-67
2022/07/15 02:54:14;;;;;;;3.25;1.02;;;17.30;91.40;;;;;;5002066;28;20045;-69
2022/07/15 02:56:42;;;;;;;3.47;1.20;;;17.50;91.20;;;;;;5002991;28;20034;-69
2022/07/15 02:59:10;;;;;;;2.58;0.98;;;17.70;91.00;;;;;;5002792;28;20038;-69
2022/07/15 03:01:37;;;;;;;3.00;1.73;;;18.00;90.90;;;;;;5002800;28;20057;-70
2022/07/15 03:04:04;;;;;;;4.18;0.88;;;18.50;90.40;;;;;;5002881;28;20017;-68
2022/07/15 03:06:33;;;;;;;2.65;1.00;;;18.80;89.20;;;;;;5003508;28;20049;-67
2022/07/15 03:09:00;;;;;;;2.47;1.00;;;19.10;87.90;;;;;;5003208;28;20378;-67
2022/07/15 03:11:29;;;;;;;4.32;1.20;;;19.30;87.00;;;;;;5002993;28;20030;-67
2022/07/15 03:13:56;;;;;;;2.85;0.80;;;19.60;85.70;;;;;;5003253;28;20100;-69
2022/07/15 03:16:23;;;;;;;1.63;0.77;;;19.80;82.70;;;;;;5002651;28;20458;-68
2022/07/15 03:18:50;;;;;;;5.38;1.55;;;20.00;81.60;;;;;;5002835;28;20026;-69
2022/07/15 03:21:18;;;;;;;5.15;1.00;;;20.40;79.60;;;;;;5002176;28;20053;-68
2022/07/15 03:23:45;;;;;;;3.33;1.30;;;20.50;80.30;;;;;;5003222;28;20026;-69
2022/07/15 03:26:12;;;;;;;4.03;0.95;;;20.70;80.60;;;;;;5002439;28;20045;-70
2022/07/15 03:28:40;;;;;;;7.10;1.55;;;20.80;81.00;;;;;;5002603;28;20375;-68
2022/07/15 03:31:07;;;;;;;2.67;0.93;;;21.00;79.40;;;;;;5002201;28;20483;-69
2022/07/15 03:33:35;;;;;;;3.35;1.40;;;21.10;78.00;;;;;;5002900;28;20057;-69
2022/07/15 03:36:02;;;;;;;1.95;0.85;;;21.30;78.80;;;;;;5002586;28;20573;-69
2022/07/15 03:38:29;;;;;;;1.42;0.95;;;21.60;75.70;;;;;;5002291;28;20030;-70
2022/07/15 03:40:57;;;;;;;2.60;1.00;;;21.90;74.80;;;;;;5001622;28;20025;-69
2022/07/15 03:43:26;;;;;;;1.77;0.90;;;22.10;74.90;;;;;;5001689;28;20034;-69
2022/07/15 03:45:54;;;;;;;3.17;0.90;;;22.60;73.70;;;;;;5002192;28;20382;-68
2022/07/15 03:48:22;;;;;;;2.83;0.90;;;23.00;70.80;;;;;;5001175;28;20026;-68
2022/07/15 03:50:49;;;;;;;8.40;1.30;;;23.30;70.80;;;;;;5002584;28;20049;-69
2022/07/15 03:53:16;;;;;;;2.88;1.30;;;23.30;71.40;;;;;;5001932;28;20057;-70
2022/07/15 03:55:47;;;;;;;2.50;1.00;;;23.60;70.40;;;;;;5002591;28;20471;-68
2022/07/15 03:58:15;;;;;;;4.43;1.00;;;23.70;69.20;;;;;;4948281;28;20057;-69
2022/07/15 04:00:42;;;;;;;2.30;1.02;;;23.60;69.20;;;;;;5002471;28;20356;-69
2022/07/15 04:03:10;;;;;;;3.83;1.15;;;24.00;67.70;;;;;;5001937;28;20084;-70
2022/07/15 04:05:38;;;;;;;4.07;0.98;;;23.80;67.40;;;;;;5003039;28;20034;-68
2022/07/15 04:08:06;;;;;;;3.92;1.00;;;23.80;67.30;;;;;;5004993;28;20026;-69
2022/07/15 04:10:33;;;;;;;2.63;1.08;;;23.60;67.10;;;;;;5006334;28;20108;-68
2022/07/15 04:13:00;;;;;;;2.85;0.90;;;23.60;66.80;;;;;;5005862;28;20018;-67
2022/07/15 04:15:28;;;;;;;4.00;0.80;;;23.70;66.80;;;;;;5006118;28;20026;-68
2022/07/15 04:17:58;;;;;;;3.30;1.17;;;23.60;65.80;;;;;;5006362;28;20109;-69
2022/07/15 04:20:26;;;;;;;3.22;0.80;;;23.30;65.80;;;;;;5005643;28;20061;-69
2022/07/15 04:22:53;;;;;;;3.10;0.73;;;22.70;66.10;;;;;;5005817;28;20344;-69
2022/07/15 04:25:22;;;;;;;4.75;1.00;;;21.70;67.80;;;;;;5005714;28;20038;-68
2022/07/15 04:27:49;;;;;;;2.75;0.70;;;20.80;69.80;;;;;;5006114;28;20022;-70
2022/07/15 04:30:17;;;;;;;1.90;1.17;;;20.00;71.90;;;;;;5005424;28;20554;-69
2022/07/15 04:32:44;;;;;;;1.65;0.80;;;19.40;73.30;;;;;;5005472;28;20485;-69
2022/07/15 04:35:11;;;;;;;3.25;1.13;;;19.00;74.40;;;;;;5005842;28;20033;-70
2022/07/15 04:37:39;;;;;;;2.10;0.88;;;18.50;76.50;;;;;;5006250;28;20021;-70
2022/07/15 04:40:07;;;;;;;3.80;1.00;;;18.20;77.30;;;;;;5004022;28;20382;-70
2022/07/15 04:42:34;;;;;;;2.60;1.15;;;18.00;77.40;;;;;;5004984;28;20017;-69
2022/07/15 04:45:02;;;;;;;5.40;1.00;;;17.60;77.20;;;;;;5005366;28;20029;-68
2022/07/15 04:47:29;;;;;;;2.70;1.20;;;17.40;78.50;;;;;;5005449;28;20030;-68
2022/07/15 04:52:47;;;;;;;3.72;1.52;;;17.20;80.00;;;;;;4999658;28;20056;-69
2022/07/15 04:55:15;;;;;;;3.97;1.05;;;17.10;79.60;;;;;;5006062;28;20057;-67
2022/07/15 04:57:42;;;;;;;3.72;1.38;;;17.00;79.60;;;;;;5005229;28;20088;-70
2022/07/15 05:00:10;;;;;;;3.38;1.75;;;17.00;79.90;;;;;;5005399;28;20105;-68
2022/07/15 05:02:38;;;;;;;3.17;0.95;;;17.00;79.10;;;;;;5004901;28;20022;-68
2022/07/15 05:05:07;;;;;;;3.50;0.98;;;16.90;79.70;;;;;;5005501;28;20026;-69
2022/07/15 05:07:34;;;;;;;2.42;1.20;;;16.90;80.60;;;;;;5004871;28;20025;-67
2022/07/15 05:10:02;;;;;;;4.80;1.23;;;17.00;80.10;;;;;;5005013;28;20087;-69
2022/07/15 05:12:29;;;;;;;3.83;1.33;;;17.00;79.90;;;;;;5004444;28;20541;-69
2022/07/15 05:14:57;;;;;;;4.47;1.20;;;16.90;80.40;;;;;;5005220;28;20022;-69
2022/07/15 05:17:25;;;;;;;5.55;1.00;;;16.90;79.80;;;;;;5004820;28;20044;-68
2022/07/15 05:19:53;;;;;;;3.95;1.55;;;17.10;79.50;;;;;;5005361;28;20100;-69
2022/07/15 05:22:20;;;;;;;3.05;0.93;;;17.20;79.20;;;;;;5005344;28;20438;-70
2022/07/15 05:24:48;;;;;;;3.35;1.45;;;17.30;79.20;;;;;;5004478;28;20068;-69
2022/07/15 05:27:15;;;;;;;2.97;1.00;;;17.20;80.10;;;;;;5004618;28;20037;-68
2022/07/15 05:29:44;;;;;;;2.63;1.10;;;17.20;81.30;;;;;;5004284;28;20025;-67
2022/07/15 05:32:12;;;;;;;7.15;1.05;;;17.20;79.00;;;;;;5004878;28;20029;-68
2022/07/15 05:34:40;;;;;;;1.25;0.80;;;17.20;80.70;;;;;;5004876;28;20080;-69
2022/07/15 05:37:07;;;;;;;3.85;0.98;;;17.40;81.40;;;;;;5004844;28;20095;-69
2022/07/15 05:39:35;;;;;;;3.25;1.20;;;17.60;78.70;;;;;;5004451;28;20053;-66
2022/07/15 05:42:03;;;;;;;2.38;1.23;;;17.80;78.00;;;;;;5004518;28;20057;-68
2022/07/15 05:44:30;;;;;;;2.67;0.60;;;17.80;78.00;;;;;;5004013;28;20022;-68
2022/07/15 05:46:57;;;;;;;2.17;0.90;;;17.80;78.50;;;;;;5004877;28;20111;-68
2022/07/15 05:49:25;;;;;;;1.70;0.68;;;17.80;78.10;;;;;;5005007;28;20022;-68
2022/07/15 05:51:52;;;;;;;4.88;1.35;;;17.90;80.20;;;;;;5004099;28;20026;-68
2022/07/15 05:54:19;;;;;;;2.95;0.60;;;17.90;78.00;;;;;;5003710;28;20014;-69
2022/07/15 05:56:47;;;;;;;1.80;1.02;;;18.00;77.50;;;;;;5003511;28;20108;-68
2022/07/15 05:59:14;;;;;;;2.05;0.70;;;18.20;77.50;;;;;;5005085;28;20044;-68
2022/07/15 06:01:41;;;;;;;2.30;1.20;;;18.40;77.20;;;;;;5003862;28;20022;-68
2022/07/15 06:04:08;;;;;;;7.22;2.25;;;18.50;76.90;;;;;;5004573;28;20118;-69
2022/07/15 06:06:36;;;;;;;2.53;0.95;;;18.80;77.20;;;;;;5003183;28;20038;-69
2022/07/15 06:09:03;;;;;;;7.70;1.45;;;19.20;78.50;;;;;;5003886;28;20037;-67
2022/07/15 06:11:30;;;;;;;2.78;0.88;;;19.40;78.40;;;;;;5004023;28;20113;-68
2022/07/15 06:13:58;;;;;;;2.35;0.98;;;19.00;76.00;;;;;;5004425;28;20033;-68
2022/07/15 06:16:25;;;;;;;4.53;0.80;;;18.70;76.80;;;;;;5004410;28;20659;-71
2022/07/15 06:18:52;;;;;;;3.97;1.00;;;18.70;77.60;;;;;;5003532;28;20052;-70
2022/07/15 06:21:20;;;;;;;1.85;1.08;;;18.80;78.50;;;;;;5003670;28;20482;-70
2022/07/15 06:23:47;;;;;;;5.72;1.20;;;19.00;78.40;;;;;;5003250;28;20097;-68
2022/07/15 06:26:14;;;;;;;2.38;1.00;;;19.00;79.90;;;;;;5000614;28;20176;-68
2022/07/15 06:28:41;;;;;;;2.03;0.80;;;18.70;81.20;;;;;;5003704;28;20022;-69
2022/07/15 06:31:09;;;;;;;3.63;1.20;;;18.40;79.30;;;;;;5003072;28;20119;-68
2022/07/15 06:33:36;;;;;;;3.60;1.30;;;18.00;79.30;;;;;;5003124;28;20137;-70
2022/07/15 06:36:03;;;;;;;2.67;1.10;;;17.50;79.50;;;;;;5004232;28;20508;-70
2022/07/15 06:38:32;;;;;;;3.58;1.27;;;17.20;83.40;;;;;;5003730;28;20026;-69
2022/07/15 06:41:00;;;;;;;2.88;1.48;;;16.90;84.50;;;;;;5003884;28;20076;-69
2022/07/15 06:43:27;;;;;;;5.80;1.38;;;16.60;86.10;;;;;;5003616;28;20100;-70
2022/07/15 06:45:54;;;;;;;3.63;1.30;;;16.30;86.20;;;;;;5002834;28;20030;-69
2022/07/15 06:48:22;;;;;;;3.03;1.58;;;16.00;87.30;;;;;;5035660;28;20029;-68
2022/07/15 06:50:49;;;;;;;9.68;2.15;;;15.80;87.80;;;;;;5002731;28;20021;-70
2022/07/15 06:53:16;;;;;;;2.95;1.67;;;15.50;89.60;;;;;;5003456;28;20022;-69
2022/07/15 06:55:44;;;;;;;3.65;1.30;;;15.30;90.70;;;;;;5002460;28;20029;-70
2022/07/15 06:58:11;;;;;;;5.40;1.80;;;15.10;91.10;;;;;;5003589;28;20426;-67
2022/07/15 07:00:38;;;;;;;6.55;2.15;;;14.90;91.40;;;;;;5002577;28;20105;-71
2022/07/15 07:03:05;;;;;;;5.63;1.73;;;14.60;92.10;;;;;;5002469;28;20038;-69
2022/07/15 07:05:33;;;;;;;4.18;1.67;;;14.50;92.70;;;;;;5002965;28;20069;-68
2022/07/15 07:08:00;;;;;;;5.13;1.65;;;14.30;93.20;;;;;;5002655;28;20057;-70
2022/07/15 07:10:27;;;;;;;7.82;1.70;;;14.00;93.80;;;;;;5003284;28;20061;-67
2022/07/15 07:12:55;;;;;;;3.85;1.95;;;13.90;94.40;;;;;;5002506;28;20115;-70
2022/07/15 07:15:23;;;;;;;3.33;1.70;;;13.70;94.70;;;;;;5003038;28;20033;-68
2022/07/15 07:17:52;;;;;;;7.00;1.90;;;13.60;95.40;;;;;;5002727;28;20080;-67
2022/07/15 07:20:20;;;;;;;3.40;2.08;;;13.40;95.80;;;;;;5003337;28;20545;-67
2022/07/15 07:22:47;;;;;;;6.45;2.67;;;13.30;96.10;;;;;;5001469;28;20034;-67
2022/07/15 07:25:14;;;;;;;7.55;3.03;;;13.20;96.50;;;;;;5003148;28;20018;-71
2022/07/15 07:27:42;;;;;;;6.30;3.35;;;13.10;96.60;;;;;;5002863;28;20539;-69
2022/07/15 07:30:09;;;;;;;8.20;3.30;;;13.00;96.90;;;;;;5003424;28;20018;-70
2022/07/15 07:32:37;;;;;;;8.00;3.60;;;12.90;97.30;;;;;;5002234;28;20026;-68
2022/07/15 07:35:05;;;;;;;7.68;3.58;;;12.80;97.60;;;;;;5001742;28;20026;-68
2022/07/15 07:37:38;;;;;;;8.80;3.22;;;12.70;97.80;;;;;;5002419;28;20022;-71
2022/07/15 07:40:07;;;;;;;9.35;3.83;;;12.70;98.30;;;;;;5002243;28;20045;-70
2022/07/15 07:42:35;;;;;;;6.85;3.20;;;12.60;98.50;;;;;;5002204;28;20491;-71
2022/07/15 07:45:03;;;;;;;5.85;3.22;;;12.50;99.00;;;;;;5017102;28;20045;-68
2022/07/15 07:47:31;;;;;;;5.32;2.88;;;12.40;99.40;;;;;;5018459;28;20482;-69
2022/07/15 07:49:58;;;;;;;4.88;3.55;;;12.40;99.60;;;;;;5017711;28;20057;-67
2022/07/15 07:52:25;;;;;;;7.38;3.10;;;12.30;99.90;;;;;;5012058;28;20055;-70
2022/07/15 07:54:53;;;;;;;7.78;4.13;;;12.20;99.90;;;;;;5018173;28;20029;-70
2022/07/15 07:57:20;;;;;;;7.10;5.05;;;12.10;99.90;;;;;;5002651;28;20054;-67
2022/07/15 07:59:47;;;;;;;8.63;4.05;;;12.10;99.90;;;;;;5002637;28;20049;-67
2022/07/15 08:02:14;;;;;;;7.32;3.45;;;12.00;99.90;;;;;;5020345;28;20491;-67
2022/07/15 08:04:42;;;;;;;8.43;4.13;;;12.00;99.90;;;;;;5011690;28;20496;-66
2022/07/15 08:07:11;;;;;;;7.22;3.88;;;11.90;99.90;;;;;;5002336;28;20057;-68
2022/07/15 08:09:38;;;;;;;7.53;3.60;;;11.90;99.90;;;;;;5000391;28;20030;-70
2022/07/15 08:12:06;;;;;;;9.98;4.40;;;11.80;99.90;;;;;;5004333;28;20034;-67
2022/07/15 08:14:33;;;;;;;9.38;5.10;;;11.80;99.90;;;;;;5007413;28;20474;-70
2022/07/15 08:17:00;;;;;;;10.93;4.32;;;11.60;99.90;;;;;;5002183;28;20132;-69
2022/07/15 08:19:28;;;;;;;6.57;3.97;;;11.60;99.90;;;;;;5002203;28;20022;-71
2022/07/15 08:21:55;;;;;;;8.45;4.78;;;11.50;99.90;;;;;;5002588;28;20495;-69
2022/07/15 08:24:22;;;;;;;8.35;4.45;;;11.50;99.90;;;;;;5022250;28;20627;-70
2022/07/15 08:26:50;;;;;;;9.60;5.47;;;11.50;99.90;;;;;;5001592;28;20046;-69
2022/07/15 08:29:17;;;;;;;7.90;4.85;;;11.40;99.90;;;;;;4998606;28;20057;-69
2022/07/15 08:31:46;;;;;;;12.75;6.15;;;11.30;99.90;;;;;;4998191;28;20065;-69
2022/07/15 08:34:13;;;;;;;9.25;5.93;;;11.20;99.90;;;;;;5000237;28;20774;-70
2022/07/15 08:36:41;;;;;;;9.35;5.47;;;11.20;99.90;;;;;;4999889;28;20026;-70
2022/07/15 08:39:08;;;;;;;9.77;5.22;;;11.20;99.90;;;;;;4997795;28;20100;-68
2022/07/15 08:41:39;;;;;;;9.13;5.82;;;11.10;99.90;;;;;;5001498;28;20028;-69
2022/07/15 08:44:07;;;;;;;11.38;5.30;;;11.10;99.90;;;;;;5000888;28;20037;-67
2022/07/15 08:46:36;;;;;;;11.57;6.30;;;11.00;99.90;;;;;;5000251;28;20923;-68
2022/07/15 08:49:08;;;;;;;10.60;6.22;;;11.00;99.90;;;;;;5000308;28;20114;-66
2022/07/15 08:51:38;;;;;;;10.90;6.20;;;11.00;99.90;;;;;;5001847;28;20117;-68
2022/07/15 08:54:06;;;;;;;9.77;5.82;;;10.90;99.90;;;;;;5003086;28;20030;-71
2022/07/15 08:56:35;;;;;;;10.30;5.80;;;10.90;99.90;;;;;;5004768;28;20025;-70
2022/07/15 08:59:05;;;;;;;8.57;6.40;;;10.90;99.90;;;;;;5007096;28;20116;-71
2022/07/15 09:01:34;;;;;;;13.15;7.78;;;10.80;99.90;;;;;;5010968;28;20359;-69
2022/07/15 09:04:01;;;;;;;17.48;7.13;;;10.70;99.90;;;;;;5023318;28;20026;-67
2022/07/15 09:06:40;;;;;;;11.43;6.93;;;10.70;99.90;;;;;;5007876;28;20042;-68
2022/07/15 09:09:24;;;;;;;12.48;7.13;;;10.70;99.90;;;;;;5002709;28;20018;-70
2022/07/15 09:12:03;;;;;;;16.10;9.18;;;10.70;99.90;;;;;;5010609;28;20064;-68
2022/07/15 09:14:32;;;;;;;13.65;8.10;;;10.70;99.90;;;;;;5023391;28;20363;-67
2022/07/15 09:17:23;;;;;;;14.98;8.32;;;10.60;99.90;;;;;;5003639;28;20045;-68
2022/07/15 09:20:00;;;;;;;15.82;8.68;;;10.60;99.90;;;;;;5012235;28;20573;-68
2022/07/15 09:22:50;;;;;;;24.08;10.50;;;10.60;99.90;;;;;;5017671;28;20367;-69
2022/07/15 09:25:18;;;;;;;14.65;8.68;;;10.50;99.90;;;;;;5013703;28;20674;-70
2022/07/15 09:27:46;;;;;;;12.90;8.00;;;10.50;99.90;;;;;;5019014;28;20060;-70
2022/07/15 09:33:38;;;;;;;13.70;10.02;;;10.40;99.90;;;;;;5022897;28;20040;-67
2022/07/15 09:36:10;;;;;;;17.45;9.98;;;10.30;99.90;;;;;;5011210;28;20025;-68
2022/07/15 09:38:56;;;;;;;14.30;8.93;;;10.40;99.90;;;;;;5009057;28;20103;-68
2022/07/15 09:41:41;;;;;;;15.50;9.52;;;10.30;99.90;;;;;;5010394;28;20033;-67
2022/07/15 09:44:11;;;;;;;12.23;9.15;;;10.30;99.90;;;;;;5009832;28;20021;-68
2022/07/15 09:46:49;;;;;;;14.05;8.48;;;10.20;99.90;;;;;;5019093;28;20043;-67
2022/07/15 09:49:22;;;;;;;17.40;10.32;;;10.10;99.90;;;;;;5023673;28;20018;-67
2022/07/15 09:52:04;;;;;;;11.80;8.43;;;10.20;99.90;;;;;;5004896;28;20038;-69
2022/07/15 09:54:46;;;;;;;14.60;9.45;;;10.20;99.90;;;;;;5010220;28;20390;-68
2022/07/15 09:57:18;;;;;;;13.60;9.77;;;10.20;99.90;;;;;;5005191;28;20116;-68
2022/07/15 09:59:51;;;;;;;12.05;8.68;;;10.10;99.90;;;;;;5005705;28;20125;-69
2022/07/15 10:02:17;;;;;;;;;;;10.00;99.90;;;;;;5004238;28;20029;-68
2022/07/15 10:04:46;;;;;;;20.27;12.48;;;10.10;99.90;;;;;;5002349;28;19905;-66
2022/07/15 10:07:14;;;;;;;12.88;8.82;;;10.00;99.90;;;;;;5003660;28;20037;-67
2022/07/15 10:09:43;;;;;;;17.10;9.68;;;10.00;99.90;;;;;;5004258;28;20064;-67
2022/07/15 10:12:21;;;;;;;17.35;9.15;;;9.90;99.90;;;;;;5003522;28;20026;-67
2022/07/15 10:15:12;;;;;;;16.88;10.55;;;9.90;99.90;;;;;;5004286;28;20045;-67
2022/07/15 10:17:57;;;;;;;14.25;8.65;;;9.90;99.90;;;;;;4994282;28;20038;-67
2022/07/15 10:20:37;;;;;;;15.95;9.93;;;9.90;99.90;;;;;;5004025;28;20033;-69
2022/07/15 10:23:40;;;;;;;12.48;9.15;;;9.80;99.90;;;;;;5003516;28;20030;-67
2022/07/15 10:26:38;;;;;;;14.98;9.30;;;9.80;99.90;;;;;;5003418;28;20044;-69
2022/07/15 10:29:08;;;;;;;14.10;9.27;;;9.70;99.90;;;;;;5003566;28;20684;-67
2022/07/15 10:31:38;;;;;;;15.35;8.85;;;9.70;99.90;;;;;;5003808;28;20053;-69
2022/07/15 10:34:08;;;;;;;11.27;8.32;;;9.70;99.90;;;;;;5003776;28;20061;-67
2022/07/15 10:36:48;;;;;;;10.32;7.90;;;9.70;99.90;;;;;;5003950;28;20028;-72
2022/07/15 10:39:20;;;;;;;16.60;9.55;;;9.60;99.90;;;;;;5003214;28;20109;-69
2022/07/15 10:41:48;;;;;;;;;;;9.60;99.90;;;;;;5003001;28;20366;-68
2022/07/15 10:44:16;;;;;;;15.32;9.50;;;9.60;99.90;;;;;;5001618;28;19909;-68
2022/07/15 10:46:43;;;;;;;11.50;8.18;;;9.50;99.90;;;;;;5004326;28;20038;-69
2022/07/15 10:49:11;;;;;;;14.02;8.43;;;9.50;99.90;;;;;;5007180;28;20529;-70
2022/07/15 10:51:39;;;;;;;16.65;9.52;;;9.40;99.90;;;;;;5004765;28;20160;-70
2022/07/15 10:54:11;;;;;;;13.68;8.63;;;9.50;99.90;;;;;;5004192;28;20079;-70
2022/07/15 10:56:41;;;;;;;;;;;9.30;99.90;;;;;;5003382;28;20021;-67
2022/07/15 10:59:19;;;;;;;14.05;8.88;;;9.30;99.90;;;;;;5003310;28;20270;-66
2022/07/15 11:01:57;;;;;;;13.90;9.90;;;9.40;99.90;;;;;;5002978;28;20018;-71
2022/07/15 11:04:27;;;;;;;13.70;8.70;;;9.20;99.90;;;;;;5003261;28;20060;-68
2022/07/15 11:09:53;;;;;;;17.25;9.88;;;9.20;99.90;;;;;;5003784;28;20029;-67
2022/07/15 11:12:33;;;;;;;18.75;10.50;;;9.20;99.90;;;;;;5002293;28;20487;-68
2022/07/15 11:15:01;;;;;;;17.30;11.18;;;9.10;99.90;;;;;;5018353;28;20061;-69
2022/07/15 11:17:35;;;;;;;19.88;12.60;;;9.10;99.90;;;;;;5003383;28;20025;-68
2022/07/15 11:20:08;;;;;;;18.60;11.15;;;9.10;99.90;;;;;;5003714;28;20069;-68
2022/07/15 11:22:38;;;;;;;21.58;11.93;;;9.00;99.90;;;;;;5003527;28;20022;-69
2022/07/15 11:25:07;;;;;;;15.50;11.52;;;9.00;99.90;;;;;;5017155;28;20037;-70
2022/07/15 11:27:34;;;;;;;19.02;11.70;;;8.90;99.90;;;;;;5012575;28;20128;-71
2022/07/15 11:30:07;;;;;;;23.98;12.98;;;9.00;99.90;;;;;;5018361;28;20106;-68
2022/07/15 11:32:35;;;;;;;19.13;13.73;;;8.90;99.90;;;;;;5003341;28;20534;-73
2022/07/15 11:35:03;;;;;;;20.10;13.23;;;8.90;99.90;;;;;;5016890;28;20425;-71
2022/07/15 11:37:36;;;;;;;18.35;13.02;;;8.90;99.90;;;;;;5002241;28;20025;-72
2022/07/15 11:40:10;;;;;;;19.58;12.35;;;8.90;99.90;;;;;;5012587;28;20030;-71
2022/07/15 11:45:38;;;;;;;28.13;13.68;;;8.90;99.90;;;;;;4989682;28;20037;-68
2022/07/15 11:48:07;;;;;;;18.17;12.13;;;8.80;99.90;;;;;;5002578;28;20032;-72
2022/07/15 11:50:38;;;;;;;19.02;12.98;;;8.80;99.90;;;;;;5002331;28;20025;-70
2022/07/15 11:53:16;;;;;;;20.42;14.20;;;8.80;99.90;;;;;;5005065;28;20032;-71
2022/07/15 11:55:51;;;;;;;17.92;12.75;;;8.80;99.90;;;;;;5012223;28;20094;-70
2022/07/15 11:58:40;;;;;;;17.85;12.55;;;8.70;99.90;;;;;;5003382;28;20100;-72
2022/07/15 12:01:11;;;;;;;16.77;11.13;;;8.70;99.90;;;;;;5001736;28;20084;-68
2022/07/15 12:03:46;;;;;;;20.65;12.88;;;8.70;99.90;;;;;;5008197;28;20105;-69
2022/07/15 12:06:13;;;;;;;17.17;12.70;;;8.60;99.90;;;;;;5009106;28;20026;-69
2022/07/15 12:08:50;;;;;;;21.00;13.05;;;8.60;99.90;;;;;;5000383;28;20478;-67
2022/07/15 12:11:30;;;;;;;14.10;11.20;;;8.60;99.90;;;;;;5003057;28;20026;-69
2022/07/15 12:14:23;;;;;;;15.95;11.60;;;8.60;99.90;;;;;;5013279;28;20061;-67
2022/07/15 12:16:52;;;;;;;17.85;12.93;;;8.50;99.90;;;;;;5001605;28;20042;-68
2022/07/15 12:19:29;;;;;;;19.75;12.85;;;8.40;99.90;;;;;;5002878;28;20034;-68
2022/07/15 12:22:05;;;;;;;17.58;12.70;;;8.50;99.90;;;;;;4982229;28;20022;-68
2022/07/15 12:24:46;;;;;;;18.98;12.70;;;8.50;99.90;;;;;;5014847;28;20021;-68
2022/07/15 12:27:14;;;;;;;21.13;14.70;;;8.40;99.90;;;;;;5003077;28;20053;-68
2022/07/15 12:29:43;;;;;;;22.30;13.80;;;8.50;99.90;;;;;;5004939;28;20072;-67
2022/07/15 12:32:13;;;;;;;16.42;12.80;;;8.40;99.90;;;;;;5006141;28;20681;-70
2022/07/15 12:34:53;;;;;;;20.73;13.15;;;8.40;99.90;;;;;;5005055;28;20036;-67
2022/07/15 12:37:23;;;;;;;17.10;11.77;;;8.30;99.90;;;;;;5006533;28;20388;-69
2022/07/15 12:40:05;;;;;;;17.10;11.38;;;8.40;99.90;;;;;;5004288;28;20272;-66
2022/07/15 12:42:53;;;;;;;13.25;10.20;;;8.30;99.90;;;;;;5007756;28;20516;-67
2022/07/15 12:45:25;;;;;;;16.98;11.40;;;8.40;99.90;;;;;;5019011;28;20511;-67
2022/07/15 12:48:06;;;;;;;16.23;11.50;;;8.30;99.90;;;;;;5004422;28;20108;-68
2022/07/15 12:50:53;;;;;;;16.85;10.98;;;8.30;99.90;;;;;;5005704;28;20526;-71
2022/07/15 12:53:21;;;;;;;14.90;10.63;;;8.20;99.90;;;;;;5020321;28;20065;-68
2022/07/15 12:55:50;;;;;;;19.17;11.35;;;8.20;99.90;;;;;;5014059;28;20037;-69
2022/07/15 12:58:27;;;;;;;17.02;11.48;;;8.20;99.90;;;;;;5005719;28;20475;-68
2022/07/15 13:01:04;;;;;;;21.00;12.95;;;8.10;99.90;;;;;;5003696;28;20068;-67
2022/07/15 13:03:32;;;;;;;21.95;13.57;;;8.20;99.90;;;;;;5007236;28;20435;-68
2022/07/15 13:05:59;;;;;;;19.67;13.02;;;8.20;99.90;;;;;;5008072;28;20037;-67
2022/07/15 13:08:29;;;;;;;23.52;13.30;;;8.20;99.90;;;;;;5025702;28;20048;-69
2022/07/15 13:10:59;;;;;;;17.73;12.23;;;8.10;99.90;;;;;;5023825;28;20087;-69